Time;durP1;ratioP1;P1;durP2;ratioP2;P2;SDS_P1;SDS_P2;PMS_P1;PMS_P2;Temp;Humidity;BMP_temperature;BMP_pressure;BME280_temperature;BME280_humidity;BME280_pressure;Samples;Min_cycle;Max_cycle;Signal;HPM_P1;HPM_P2
2023/08/14 00:01:39;;;;;;;9.32;6.88;;;;;;;26.50;100.00;96287.69;5073773;28;20025;-83
2023/08/14 00:04:05;;;;;;;9.35;6.68;;;;;;;26.27;100.00;96286.16;5050895;28;20544;-83
2023/08/14 00:06:30;;;;;;;11.48;6.90;;;;;;;26.68;100.00;96272.97;5067228;28;20028;-84
2023/08/14 00:08:59;;;;;;;9.20;6.45;;;;;;;26.83;100.00;96277.63;5073305;28;20489;-83
2023/08/14 00:11:24;;;;;;;11.35;7.53;;;;;;;26.48;100.00;96277.16;5072675;28;20401;-83
2023/08/14 00:13:54;;;;;;;8.57;6.85;;;;;;;26.24;100.00;96282.06;5069280;28;20021;-83
2023/08/14 00:16:20;;;;;;;11.23;6.82;;;;;;;26.36;100.00;96273.81;5070071;28;20376;-83
2023/08/14 00:18:46;;;;;;;9.07;6.80;;;;;;;26.70;100.00;96273.53;5049213;28;20020;-83
2023/08/14 00:21:12;;;;;;;9.80;6.93;;;;;;;26.43;100.00;96274.41;5061443;28;20033;-83
2023/08/14 00:23:38;;;;;;;9.52;6.55;;;;;;;26.66;100.00;96267.00;5056115;28;20381;-84
2023/08/14 00:26:04;;;;;;;9.00;6.30;;;;;;;26.56;100.00;96274.00;5055917;28;20372;-83
2023/08/14 00:28:29;;;;;;;10.57;6.50;;;;;;;26.43;100.00;96268.22;5050585;28;20028;-83
2023/08/14 00:30:55;;;;;;;9.07;7.05;;;;;;;26.31;100.00;96269.19;5055466;28;20012;-84
2023/08/14 00:33:20;;;;;;;11.82;7.15;;;;;;;26.03;100.00;96264.13;5071958;28;20025;-84
2023/08/14 00:35:46;;;;;;;11.07;7.30;;;;;;;25.81;100.00;96266.88;5064667;28;20032;-83
2023/08/14 00:38:11;;;;;;;13.07;7.45;;;;;;;26.02;100.00;96252.53;5054523;28;20063;-83
2023/08/14 00:40:39;;;;;;;11.60;7.22;;;;;;;25.83;100.00;96256.66;5068298;28;20029;-83
2023/08/14 00:43:04;;;;;;;9.95;7.95;;;;;;;25.96;100.00;96258.94;5056618;28;20050;-83
2023/08/14 00:45:37;;;;;;;9.38;6.50;;;;;;;26.09;100.00;96260.41;5056990;28;20432;-83
2023/08/14 00:48:03;;;;;;;10.70;7.60;;;;;;;26.19;100.00;96262.34;5056161;28;20063;-83
2023/08/14 00:50:29;;;;;;;11.65;7.65;;;;;;;26.13;100.00;96264.19;5056030;28;20034;-83
2023/08/14 00:52:57;;;;;;;11.43;7.18;;;;;;;26.22;100.00;96270.72;5073256;28;20048;-84
2023/08/14 00:55:27;;;;;;;11.73;6.68;;;;;;;26.25;100.00;96266.72;5073013;28;20489;-83
2023/08/14 00:57:54;;;;;;;12.07;7.13;;;;;;;26.20;100.00;96264.78;5061830;28;20040;-83
2023/08/14 01:00:21;;;;;;;8.23;6.15;;;;;;;26.34;100.00;96259.78;5072196;28;20029;-83
2023/08/14 01:02:49;;;;;;;11.23;6.82;;;;;;;26.43;100.00;96258.22;5055745;28;20020;-83
2023/08/14 01:05:15;;;;;;;9.50;6.88;;;;;;;26.60;100.00;96268.88;5043326;28;20025;-83
2023/08/14 01:07:40;;;;;;;7.60;6.22;;;;;;;26.36;100.00;96262.19;5049457;28;20074;-83
2023/08/14 01:10:08;;;;;;;11.15;6.75;;;;;;;26.04;100.00;96257.66;5050548;28;20079;-83
2023/08/14 01:13:04;;;;;;;10.43;6.82;;;;;;;26.43;100.00;96252.03;5039023;28;20023;-83
2023/08/14 01:15:34;;;;;;;7.82;6.03;;;;;;;26.41;100.00;96254.97;5073012;28;20457;-83
2023/08/14 01:18:03;;;;;;;11.05;6.03;;;;;;;26.49;100.00;96257.22;5056698;28;20023;-83
2023/08/14 01:20:32;;;;;;;8.05;5.72;;;;;;;26.68;100.00;96248.69;5055026;28;20024;-83
2023/08/14 01:23:13;;;;;;;9.90;5.85;;;;;;;26.73;100.00;96248.75;5055384;28;20475;-84
2023/08/14 01:25:39;;;;;;;9.40;6.45;;;;;;;26.60;100.00;96252.69;5056997;28;20093;-84
2023/08/14 01:28:08;;;;;;;11.70;6.93;;;;;;;26.51;100.00;96248.88;5061694;28;20451;-83
2023/08/14 01:30:35;;;;;;;10.10;6.43;;;;;;;26.48;100.00;96242.09;5073092;28;20016;-83
2023/08/14 01:33:01;;;;;;;12.95;6.68;;;;;;;26.40;100.00;96245.25;5072310;28;20626;-83
2023/08/14 01:35:38;;;;;;;8.50;6.18;;;;;;;26.43;100.00;96244.75;5067603;28;20027;-83
2023/08/14 01:38:12;;;;;;;8.35;5.85;;;;;;;26.51;100.00;96256.94;5052854;28;20024;-83
2023/08/14 01:40:45;;;;;;;8.93;6.75;;;;;;;26.43;100.00;96252.84;5069116;28;20055;-84
2023/08/14 01:43:18;;;;;;;10.18;7.03;;;;;;;26.35;100.00;96253.31;5047633;28;20115;-84
2023/08/14 01:45:44;;;;;;;9.85;6.57;;;;;;;26.23;100.00;96253.50;5054789;28;20664;-83
2023/08/14 01:48:12;;;;;;;10.27;6.50;;;;;;;25.95;100.00;96251.09;5071654;28;20033;-83
2023/08/14 01:50:38;;;;;;;11.13;7.18;;;;;;;26.14;100.00;96251.53;5069972;28;20562;-83
2023/08/14 01:53:05;;;;;;;9.30;7.03;;;;;;;26.31;100.00;96244.13;5054406;28;20024;-83
2023/08/14 01:55:31;;;;;;;11.35;7.15;;;;;;;26.64;100.00;96245.72;5054559;28;20020;-83
2023/08/14 01:58:00;;;;;;;9.05;6.80;;;;;;;26.37;100.00;96232.28;5050620;28;20036;-83
2023/08/14 02:00:26;;;;;;;9.70;7.00;;;;;;;25.92;100.00;96232.75;5050558;28;20021;-83
2023/08/14 02:02:53;;;;;;;10.00;7.25;;;;;;;25.97;100.00;96235.50;5050411;28;20024;-84
2023/08/14 02:05:18;;;;;;;10.48;7.35;;;;;;;25.96;100.00;96244.66;5062282;28;20032;-83
2023/08/14 02:07:44;;;;;;;9.35;6.85;;;;;;;25.95;100.00;96235.75;5055019;28;20394;-85
2023/08/14 02:10:10;;;;;;;11.05;7.70;;;;;;;25.86;100.00;96229.22;5071070;28;20029;-83
2023/08/14 02:12:36;;;;;;;11.05;7.47;;;;;;;25.69;100.00;96223.06;5044821;28;20047;-83
2023/08/14 02:15:08;;;;;;;8.68;7.22;;;;;;;25.69;100.00;96225.78;5070901;28;20051;-83
2023/08/14 02:17:33;;;;;;;12.32;7.85;;;;;;;25.37;100.00;96218.47;5054159;28;20055;-83
2023/08/14 02:19:59;;;;;;;9.90;7.50;;;;;;;25.42;100.00;96221.22;5048378;28;20067;-84
2023/08/14 02:22:25;;;;;;;9.55;6.88;;;;;;;25.55;100.00;96220.00;5065551;28;20021;-83
2023/08/14 02:24:52;;;;;;;8.77;7.00;;;;;;;25.68;100.00;96213.38;5068148;28;20032;-83
2023/08/14 02:27:17;;;;;;;11.98;7.95;;;;;;;25.80;100.00;96220.28;5070820;28;20028;-84
2023/08/14 02:29:46;;;;;;;10.93;7.90;;;;;;;25.67;100.00;96222.53;5051590;28;20478;-84
2023/08/14 02:32:12;;;;;;;11.00;7.45;;;;;;;25.66;100.00;96223.63;5052076;28;20717;-83
2023/08/14 02:34:52;;;;;;;12.10;7.95;;;;;;;25.96;100.00;96229.31;5050826;28;20024;-83
2023/08/14 02:37:19;;;;;;;10.80;7.55;;;;;;;25.98;100.00;96262.19;5052922;28;20032;-83
2023/08/14 02:39:46;;;;;;;8.57;6.75;;;;;;;25.71;100.00;96299.06;5054541;28;20036;-83
2023/08/14 02:42:15;;;;;;;8.85;7.25;;;;;;;25.76;100.00;96307.22;5069367;28;20131;-83
2023/08/14 02:44:40;;;;;;;10.15;7.20;;;;;;;25.84;100.00;96315.66;5061120;28;20033;-83
2023/08/14 02:47:12;;;;;;;12.27;8.35;;;;;;;25.96;100.00;96318.22;5047208;28;20016;-83
2023/08/14 02:49:38;;;;;;;11.50;7.40;;;;;;;25.87;100.00;96314.34;5050161;28;20039;-83
2023/08/14 02:52:10;;;;;;;12.80;8.27;;;;;;;25.62;100.00;96310.31;5045776;28;20016;-83
2023/08/14 02:54:35;;;;;;;10.23;5.95;;;;;;;25.53;100.00;96327.97;5058905;28;20067;-83
2023/08/14 02:57:01;;;;;;;10.32;8.00;;;;;;;25.41;100.00;96332.66;5066085;28;20502;-83
2023/08/14 02:59:26;;;;;;;9.98;7.88;;;;;;;25.33;100.00;96330.41;5045660;28;20013;-84
2023/08/14 03:01:52;;;;;;;12.10;6.75;;;;;;;25.16;100.00;96323.22;5058519;28;20479;-83
2023/08/14 03:04:18;;;;;;;12.13;7.32;;;;;;;25.04;100.00;96330.53;5065382;28;20078;-83
2023/08/14 03:06:52;;;;;;;10.60;7.25;;;;;;;25.46;100.00;96340.00;5045827;28;20171;-84
2023/08/14 03:09:18;;;;;;;15.05;9.32;;;;;;;25.42;100.00;96337.00;5063750;28;20028;-82
2023/08/14 03:11:44;;;;;;;18.55;8.65;;;;;;;25.27;100.00;96332.22;5041040;28;20521;-82
2023/08/14 03:14:09;;;;;;;13.73;8.63;;;;;;;25.48;100.00;96327.91;5036101;28;20090;-82
2023/08/14 03:16:35;;;;;;;17.92;8.27;;;;;;;25.22;100.00;96318.72;5053117;28;20036;-82
2023/08/14 03:19:00;;;;;;;9.88;7.40;;;;;;;25.18;100.00;96312.19;5039962;28;20033;-82
2023/08/14 03:21:26;;;;;;;12.02;7.00;;;;;;;25.12;100.00;96297.06;5053722;28;20032;-82
2023/08/14 03:23:51;;;;;;;12.70;7.75;;;;;;;25.81;100.00;96283.03;5054126;28;20040;-82
2023/08/14 03:26:17;;;;;;;8.80;6.80;;;;;;;25.95;100.00;96268.06;5053640;28;20036;-82
2023/08/14 03:28:43;;;;;;;10.15;7.35;;;;;;;26.00;100.00;96257.34;5042092;28;20033;-83
2023/08/14 03:31:09;;;;;;;9.95;6.25;;;;;;;25.84;100.00;96240.22;5052911;28;20044;-82
2023/08/14 03:33:36;;;;;;;9.60;6.65;;;;;;;25.35;100.00;96242.97;5061972;28;20031;-82
2023/08/14 03:36:03;;;;;;;11.57;8.55;;;;;;;25.69;100.00;96228.47;5053941;28;20031;-82
2023/08/14 03:38:28;;;;;;;12.55;7.63;;;;;;;25.30;100.00;96212.47;5053368;28;20032;-83
2023/08/14 03:40:54;;;;;;;15.18;8.52;;;;;;;25.70;100.00;96192.41;5050542;28;20025;-82
2023/08/14 03:43:20;;;;;;;10.15;7.70;;;;;;;25.25;100.00;96180.94;5052516;28;20025;-82
2023/08/14 03:45:45;;;;;;;9.80;6.72;;;;;;;25.71;100.00;96181.34;5057541;28;20025;-82
2023/08/14 03:48:12;;;;;;;10.38;6.50;;;;;;;25.29;100.00;96165.09;5049809;28;20008;-83
2023/08/14 03:50:40;;;;;;;8.65;5.82;;;;;;;25.34;100.00;96171.31;5058787;28;20383;-82
2023/08/14 03:53:05;;;;;;;11.70;6.38;;;;;;;25.27;100.00;96161.84;5058024;28;20021;-82
2023/08/14 03:55:31;;;;;;;9.45;6.50;;;;;;;25.36;100.00;96166.50;5053198;28;20395;-82
2023/08/14 03:57:57;;;;;;;10.95;6.30;;;;;;;25.61;100.00;96178.59;5041657;28;20025;-83
2023/08/14 04:00:23;;;;;;;8.30;5.78;;;;;;;25.76;100.00;96180.59;5050909;28;20114;-83
2023/08/14 04:02:55;;;;;;;10.68;6.72;;;;;;;25.75;100.00;96178.97;5056996;28;20475;-83
2023/08/14 04:05:20;;;;;;;6.95;6.05;;;;;;;25.74;100.00;96183.53;5056843;28;20020;-83
2023/08/14 04:07:46;;;;;;;12.02;6.78;;;;;;;25.54;100.00;96192.25;5057418;28;20023;-83
2023/08/14 04:10:11;;;;;;;8.68;6.60;;;;;;;25.55;100.00;96195.75;5056926;28;20024;-83
2023/08/14 04:12:37;;;;;;;16.58;7.88;;;;;;;25.30;100.00;96207.09;5054169;28;20029;-83
2023/08/14 04:15:16;;;;;;;10.82;6.35;;;;;;;25.57;100.00;96205.22;5054081;28;20020;-82
2023/08/14 04:17:42;;;;;;;7.57;6.22;;;;;;;25.20;100.00;96196.22;5057085;28;20025;-83
2023/08/14 04:20:09;;;;;;;8.55;6.22;;;;;;;25.22;100.00;96194.91;5061995;28;20072;-83
2023/08/14 04:22:35;;;;;;;7.60;6.30;;;;;;;25.01;100.00;96201.09;5081425;28;20080;-83
2023/08/14 04:25:01;;;;;;;10.00;6.07;;;;;;;24.88;100.00;96205.81;5073631;28;20047;-83
2023/08/14 04:27:27;;;;;;;8.95;6.13;;;;;;;25.14;100.00;96206.09;5054958;28;20041;-83
2023/08/14 04:29:53;;;;;;;9.57;6.15;;;;;;;25.02;100.00;96206.22;5050710;28;20035;-83
2023/08/14 04:32:19;;;;;;;8.27;6.10;;;;;;;24.92;100.00;96209.59;5070976;28;20089;-83
2023/08/14 04:34:45;;;;;;;8.68;6.32;;;;;;;25.26;100.00;96206.78;5065695;28;20090;-83
2023/08/14 04:37:11;;;;;;;10.23;6.38;;;;;;;25.30;100.00;96199.03;5051446;28;20437;-83
2023/08/14 04:39:37;;;;;;;8.02;6.25;;;;;;;25.54;100.00;96202.22;5054304;28;20040;-83
2023/08/14 04:42:03;;;;;;;12.95;7.30;;;;;;;25.38;100.00;96198.56;5074726;28;20035;-83
2023/08/14 04:44:29;;;;;;;12.25;6.97;;;;;;;25.66;100.00;96197.50;5053681;28;20033;-83
2023/08/14 04:46:54;;;;;;;7.97;6.47;;;;;;;25.68;100.00;96198.03;5070003;28;20094;-83
2023/08/14 04:49:22;;;;;;;8.05;6.30;;;;;;;25.67;100.00;96195.59;5039851;28;20024;-83
2023/08/14 04:51:48;;;;;;;8.55;6.47;;;;;;;25.51;100.00;96195.44;5051651;28;20136;-83
2023/08/14 04:54:13;;;;;;;11.23;7.38;;;;;;;25.16;100.00;96202.09;5052210;28;20062;-83
2023/08/14 04:56:39;;;;;;;10.00;6.45;;;;;;;25.04;100.00;96193.31;5063072;28;20025;-83
2023/08/14 04:59:05;;;;;;;9.70;7.63;;;;;;;25.04;100.00;96198.69;5054022;28;20039;-83
2023/08/14 05:01:31;;;;;;;8.82;7.38;;;;;;;25.36;100.00;96190.75;5060948;28;20526;-83
2023/08/14 05:03:59;;;;;;;9.70;7.07;;;;;;;25.56;100.00;96181.25;5047599;28;20375;-83
2023/08/14 05:06:26;;;;;;;10.93;8.38;;;;;;;25.75;100.00;96187.03;5054755;28;20383;-83
2023/08/14 05:08:53;;;;;;;9.27;7.65;;;;;;;25.88;100.00;96191.22;5056522;28;20028;-83
2023/08/14 05:11:18;;;;;;;10.70;7.32;;;;;;;26.09;100.00;96195.72;5048143;28;20071;-83
2023/08/14 05:13:44;;;;;;;12.00;7.50;;;;;;;25.95;100.00;96197.22;5036325;28;20021;-83
2023/08/14 05:16:11;;;;;;;9.25;7.40;;;;;;;25.74;100.00;96196.19;5046700;28;20032;-83
2023/08/14 05:18:45;;;;;;;9.48;7.10;;;;;;;25.75;100.00;96197.81;5056269;28;20082;-83
2023/08/14 05:21:10;;;;;;;10.00;7.40;;;;;;;25.93;100.00;96202.88;5055559;28;20025;-83
2023/08/14 05:23:36;;;;;;;11.80;7.85;;;;;;;26.20;100.00;96200.09;5054914;28;20090;-83
2023/08/14 05:26:11;;;;;;;8.68;7.38;;;;;;;26.39;100.00;96192.41;5048650;28;20025;-83
2023/08/14 05:28:37;;;;;;;10.80;8.82;;;;;;;26.50;100.00;96199.50;5065743;28;20111;-83
2023/08/14 05:31:05;;;;;;;9.05;7.50;;;;;;;26.46;100.00;96200.25;5072369;28;20032;-83
2023/08/14 05:33:31;;;;;;;8.77;6.93;;;;;;;26.57;100.00;96199.28;5050577;28;20017;-83
2023/08/14 05:35:56;;;;;;;9.60;7.57;;;;;;;26.65;100.00;96193.38;5048559;28;20453;-83
2023/08/14 05:38:26;;;;;;;9.73;6.72;;;;;;;26.66;100.00;96196.88;5066629;28;20448;-83
2023/08/14 05:40:51;;;;;;;10.63;7.43;;;;;;;26.66;100.00;96197.72;5065427;28;20051;-84
2023/08/14 05:43:17;;;;;;;9.43;6.95;;;;;;;26.82;100.00;96197.78;5054862;28;20032;-83
2023/08/14 05:45:45;;;;;;;10.73;7.53;;;;;;;26.71;100.00;96205.00;5057271;28;20551;-83
2023/08/14 05:48:12;;;;;;;9.18;6.25;;;;;;;26.58;100.00;96205.47;5051453;28;20029;-84
2023/08/14 05:50:38;;;;;;;9.15;6.63;;;;;;;26.27;100.00;96206.06;5071959;28;20099;-84
2023/08/14 05:53:05;;;;;;;9.85;6.78;;;;;;;26.07;100.00;96204.03;5052284;28;20020;-84
2023/08/14 05:55:32;;;;;;;8.65;6.80;;;;;;;26.49;100.00;96206.00;5048499;28;20021;-84
2023/08/14 05:57:58;;;;;;;9.35;5.57;;;;;;;26.94;100.00;96207.28;5046225;28;20028;-83
2023/08/14 06:00:29;;;;;;;9.13;6.22;;;;;;;27.46;100.00;96206.41;5050450;28;20053;-84
2023/08/14 06:02:55;;;;;;;11.63;5.95;;;;;;;27.09;100.00;96194.91;5061259;28;20039;-83
2023/08/14 06:05:21;;;;;;;11.43;6.40;;;;;;;27.48;100.00;96192.59;5056862;28;20024;-83
2023/08/14 06:07:47;;;;;;;11.95;5.28;;;;;;;27.34;100.00;96195.00;5055792;28;20021;-83
2023/08/14 06:10:12;;;;;;;11.07;6.00;;;;;;;28.08;100.00;96188.34;5061373;28;20664;-84
2023/08/14 06:12:38;;;;;;;9.70;4.78;;;;;;;27.91;100.00;96188.63;5056039;28;20768;-83
2023/08/14 06:15:07;;;;;;;8.63;5.20;;;;;;;27.87;100.00;96190.25;5052234;28;20521;-83
2023/08/14 06:17:34;;;;;;;7.03;4.60;;;;;;;28.42;100.00;96191.28;5050454;28;20035;-83
2023/08/14 06:20:03;;;;;;;8.65;4.70;;;;;;;28.36;100.00;96186.94;5046945;28;20108;-83
2023/08/14 06:22:28;;;;;;;7.78;4.95;;;;;;;28.28;100.00;96184.81;5062239;28;20497;-82
2023/08/14 06:24:54;;;;;;;7.88;5.30;;;;;;;28.53;100.00;96183.16;5070797;28;20111;-82
2023/08/14 06:27:20;;;;;;;7.22;4.85;;;;;;;29.26;100.00;96183.41;5066491;28;20058;-82
2023/08/14 06:29:45;;;;;;;11.80;5.90;;;;;;;28.43;100.00;96200.22;5045876;28;20401;-83
2023/08/14 06:32:13;;;;;;;8.60;5.47;;;;;;;28.02;100.00;96196.72;5050301;28;20021;-86
2023/08/14 06:34:39;;;;;;;7.47;5.15;;;;;;;27.28;100.00;96193.38;5045643;28;20020;-82
2023/08/14 06:37:04;;;;;;;9.00;4.93;;;;;;;26.75;100.00;96196.13;5039386;28;20017;-82
2023/08/14 06:39:38;;;;;;;8.60;5.28;;;;;;;27.01;100.00;96191.66;5049717;28;20036;-83
2023/08/14 06:42:06;;;;;;;8.32;4.78;;;;;;;26.94;100.00;96191.09;5068533;28;20028;-83
2023/08/14 06:44:33;;;;;;;8.07;4.75;;;;;;;27.06;100.00;96198.13;5064212;28;20478;-82
2023/08/14 06:47:01;;;;;;;7.80;4.25;;;;;;;26.85;100.00;96200.75;5050879;28;20025;-83
2023/08/14 06:49:34;;;;;;;7.30;3.42;;;;;;;26.51;100.00;96190.34;5052060;28;20021;-83
2023/08/14 06:52:01;;;;;;;5.97;3.33;;;;;;;26.64;100.00;96193.66;5060983;28;20552;-82
2023/08/14 06:54:28;;;;;;;4.90;2.60;;;;;;;26.62;100.00;96193.09;5051118;28;20031;-83
2023/08/14 06:56:54;;;;;;;4.30;3.03;;;;;;;26.06;100.00;96191.66;5055649;28;20025;-82
2023/08/14 06:59:19;;;;;;;6.95;3.92;;;;;;;26.07;100.00;96185.19;5051294;28;20082;-83
2023/08/14 07:01:46;;;;;;;5.82;3.25;;;;;;;26.14;100.00;96181.47;5053399;28;20025;-83
2023/08/14 07:04:12;;;;;;;5.00;2.50;;;;;;;26.75;100.00;96195.31;5067367;28;20086;-81
2023/08/14 07:06:38;;;;;;;4.53;2.05;;;;;;;27.86;100.00;96191.31;5047799;28;20483;-82
2023/08/14 07:09:04;;;;;;;6.47;2.53;;;;;;;27.31;100.00;96206.34;5066957;28;20375;-82
2023/08/14 07:11:36;;;;;;;4.63;2.38;;;;;;;28.10;100.00;96199.72;5056338;28;20070;-82
2023/08/14 07:14:02;;;;;;;5.47;2.38;;;;;;;27.92;100.00;96203.75;5058937;28;20112;-83
2023/08/14 07:16:29;;;;;;;5.32;2.53;;;;;;;27.14;100.00;96219.25;5068529;28;20025;-81
2023/08/14 07:18:54;;;;;;;6.05;2.70;;;;;;;28.06;100.00;96208.63;5047795;28;20107;-82
2023/08/14 07:21:20;;;;;;;4.95;2.20;;;;;;;28.40;100.00;96215.13;5057364;28;20092;-82
2023/08/14 07:23:47;;;;;;;3.45;2.38;;;;;;;29.35;100.00;96203.41;5072894;28;20032;-83
2023/08/14 07:26:12;;;;;;;5.60;2.17;;;;;;;29.73;100.00;96197.50;5074335;28;20106;-82
2023/08/14 07:28:41;;;;;;;4.40;2.08;;;;;;;30.19;100.00;96200.69;5054402;28;20035;-82
2023/08/14 07:31:12;;;;;;;4.43;2.17;;;;;;;30.45;100.00;96208.56;5058653;28;20035;-82
2023/08/14 07:33:38;;;;;;;3.47;2.00;;;;;;;31.41;100.00;96203.16;5071273;28;20083;-82
2023/08/14 07:36:04;;;;;;;2.75;2.00;;;;;;;30.41;100.00;96204.81;5060201;28;20020;-82
2023/08/14 07:38:55;;;;;;;3.95;2.13;;;;;;;30.90;100.00;96201.06;5050253;28;20075;-82
2023/08/14 07:41:21;;;;;;;4.13;2.15;;;;;;;30.95;100.00;96201.00;5071111;28;20071;-83
2023/08/14 07:43:47;;;;;;;6.93;2.30;;;;;;;29.97;100.00;96192.97;5068976;28;20036;-83
2023/08/14 07:46:12;;;;;;;3.70;2.13;;;;;;;30.76;100.00;96187.38;5075014;28;20036;-82
2023/08/14 07:48:38;;;;;;;7.03;2.30;;;;;;;30.81;100.00;96195.47;5065569;28;20017;-82
2023/08/14 07:51:03;;;;;;;5.07;2.13;;;;;;;31.19;100.00;96193.66;5062795;28;20467;-83
2023/08/14 07:53:30;;;;;;;5.32;2.20;;;;;;;30.65;100.00;96192.09;5057854;28;20474;-82
2023/08/14 07:55:56;;;;;;;5.75;2.15;;;;;;;30.92;100.00;96196.13;5054232;28;20016;-81
2023/08/14 07:58:22;;;;;;;4.03;2.35;;;;;;;30.85;100.00;96191.09;5067305;28;20017;-83
2023/08/14 08:00:48;;;;;;;4.13;2.00;;;;;;;31.06;100.00;96201.69;5073956;28;20093;-82
2023/08/14 08:03:14;;;;;;;3.55;1.83;;;;;;;31.75;100.00;96189.31;5069295;28;20063;-83
2023/08/14 08:05:39;;;;;;;3.50;2.10;;;;;;;31.90;100.00;96193.75;5075202;28;20020;-82
2023/08/14 08:08:05;;;;;;;3.72;2.00;;;;;;;32.06;100.00;96186.97;5059579;28;20020;-82
2023/08/14 08:10:30;;;;;;;6.18;2.67;;;;;;;32.37;100.00;96192.69;5068453;28;20116;-82
2023/08/14 08:12:56;;;;;;;4.45;2.10;;;;;;;32.83;100.00;96183.66;5057101;28;20025;-82
2023/08/14 08:15:22;;;;;;;4.65;2.40;;;;;;;33.68;100.00;96180.53;5072883;28;20401;-83
2023/08/14 08:17:47;;;;;;;4.22;1.88;;;;;;;32.57;100.00;96196.16;5057988;28;20458;-83
2023/08/14 08:20:13;;;;;;;5.75;2.47;;;;;;;31.84;100.00;96203.88;5053759;28;20036;-82
2023/08/14 08:22:43;;;;;;;5.68;2.50;;;;;;;31.98;100.00;96206.66;5048826;28;20417;-82
2023/08/14 08:25:09;;;;;;;5.25;2.20;;;;;;;32.82;100.00;96201.09;5058366;28;20070;-83
2023/08/14 08:27:35;;;;;;;6.90;2.40;;;;;;;32.65;100.00;96202.81;5070343;28;20029;-83
2023/08/14 08:30:02;;;;;;;8.63;1.95;;;;;;;34.46;99.04;96200.97;5062322;28;20032;-83
2023/08/14 08:32:27;;;;;;;4.90;2.05;;;;;;;35.11;95.74;96209.63;5072279;28;20021;-83
2023/08/14 08:34:54;;;;;;;4.68;2.20;;;;;;;34.44;93.81;96203.22;5071648;28;20020;-83
2023/08/14 08:37:21;;;;;;;4.45;1.98;;;;;;;34.56;88.81;96210.06;5072706;28;20040;-81
2023/08/14 08:39:46;;;;;;;4.20;2.33;;;;;;;34.13;95.50;96213.31;5057112;28;20032;-82
2023/08/14 08:42:13;;;;;;;7.45;2.00;;;;;;;35.01;97.33;96218.09;5057414;28;20027;-83
2023/08/14 08:44:43;;;;;;;3.80;2.17;;;;;;;34.74;95.77;96217.19;5073610;28;20437;-83
2023/08/14 08:47:12;;;;;;;5.25;2.38;;;;;;;34.86;93.67;96219.34;5063659;28;20089;-83
2023/08/14 08:49:39;;;;;;;3.90;1.98;;;;;;;34.29;86.32;96220.00;5076103;28;20052;-83
2023/08/14 08:52:06;;;;;;;4.32;2.22;;;;;;;34.55;88.04;96219.38;5064932;28;20159;-83
2023/08/14 08:54:32;;;;;;;4.13;2.28;;;;;;;34.84;84.03;96225.09;5065373;28;20024;-83
2023/08/14 08:56:59;;;;;;;4.15;2.00;;;;;;;34.64;86.38;96225.66;5066030;28;20028;-83
2023/08/14 08:59:32;;;;;;;3.85;2.17;;;;;;;35.25;82.64;96234.94;5084307;28;20043;-83
2023/08/14 09:01:58;;;;;;;3.50;1.70;;;;;;;35.23;84.17;96228.16;5065475;28;20015;-80
2023/08/14 09:04:23;;;;;;;4.30;2.20;;;;;;;34.84;84.87;96233.31;5081771;28;20052;-82
2023/08/14 09:06:53;;;;;;;3.95;1.58;;;;;;;35.40;70.50;96231.75;5066230;28;20020;-82
2023/08/14 09:09:19;;;;;;;3.88;1.90;;;;;;;35.51;72.84;96234.16;5083919;28;20032;-81
2023/08/14 09:11:45;;;;;;;6.03;1.95;;;;;;;35.83;77.83;96236.47;5063721;28;20029;-81
2023/08/14 09:14:11;;;;;;;5.03;2.20;;;;;;;35.77;74.12;96245.16;5062415;28;20043;-82
2023/08/14 09:16:37;;;;;;;3.53;1.77;;;;;;;35.87;75.03;96233.91;5057409;28;20079;-82
2023/08/14 09:19:03;;;;;;;3.75;2.08;;;;;;;36.06;70.95;96237.16;5063539;28;20021;-82
2023/08/14 09:21:29;;;;;;;5.07;2.28;;;;;;;36.06;67.21;96234.41;5073633;28;20096;-80
2023/08/14 09:23:55;;;;;;;3.67;1.90;;;;;;;35.24;74.68;96233.31;5070431;28;20047;-81
2023/08/14 09:26:22;;;;;;;7.22;3.70;;;;;;;35.49;76.69;96236.44;5078665;28;20024;-82
2023/08/14 09:28:48;;;;;;;3.80;2.00;;;;;;;35.04;75.34;96231.16;5080886;28;20029;-82
2023/08/14 09:31:14;;;;;;;5.75;2.25;;;;;;;35.59;78.52;96226.00;5080510;28;20075;-82
2023/08/14 09:33:42;;;;;;;3.45;1.70;;;;;;;36.05;75.35;96231.97;5063908;28;20027;-82
2023/08/14 09:36:08;;;;;;;5.80;2.15;;;;;;;36.88;68.58;96220.69;5074917;28;20073;-82
2023/08/14 09:38:33;;;;;;;4.55;1.88;;;;;;;35.87;71.09;96237.44;5077023;28;20044;-82
2023/08/14 09:41:01;;;;;;;2.70;1.73;;;;;;;35.49;73.35;96233.69;5077794;28;20032;-82
2023/08/14 09:43:29;;;;;;;5.72;2.15;;;;;;;37.88;65.12;96230.13;5059500;28;20028;-82
2023/08/14 09:45:59;;;;;;;3.30;2.05;;;;;;;37.56;62.37;96228.94;5056718;28;20498;-81
2023/08/14 09:48:40;;;;;;;3.38;1.90;;;;;;;38.13;61.10;96219.28;5063809;28;20059;-82
2023/08/14 09:51:15;;;;;;;6.82;2.30;;;;;;;37.17;65.74;96217.19;5058957;28;20031;-82
2023/08/14 09:53:49;;;;;;;5.32;1.77;;;;;;;36.04;69.79;96231.19;5059472;28;20086;-82
2023/08/14 09:56:19;;;;;;;5.57;2.10;;;;;;;36.30;69.54;96228.41;5073051;28;20031;-82
2023/08/14 09:58:48;;;;;;;3.22;2.10;;;;;;;36.90;67.96;96220.38;5073745;28;20021;-82
2023/08/14 10:01:15;;;;;;;4.50;2.03;;;;;;;37.67;63.18;96221.09;5077170;28;20028;-82
2023/08/14 10:03:42;;;;;;;5.97;4.43;;;;;;;39.43;60.51;96215.03;5064225;28;20028;-82
2023/08/14 10:06:09;;;;;;;3.88;2.10;;;;;;;38.50;60.41;96211.16;5076750;28;20378;-83
2023/08/14 10:08:40;;;;;;;5.80;2.30;;;;;;;37.28;69.52;96215.66;5078277;28;20029;-82
2023/08/14 10:11:07;;;;;;;3.78;1.73;;;;;;;39.14;60.79;96205.88;5053321;28;20019;-82
2023/08/14 10:13:43;;;;;;;5.95;2.10;;;;;;;36.68;65.71;96210.47;5051005;28;20024;-82
2023/08/14 10:16:14;;;;;;;3.55;2.05;;;;;;;36.50;73.59;96209.72;5057084;28;20029;-82
2023/08/14 10:18:44;;;;;;;3.55;1.92;;;;;;;37.63;62.88;96201.78;5078634;28;20017;-82
2023/08/14 10:21:12;;;;;;;3.92;2.25;;;;;;;37.14;66.41;96190.44;5061772;28;20123;-82
2023/08/14 10:23:39;;;;;;;5.88;2.22;;;;;;;36.97;68.35;96205.03;5071573;28;20024;-82
2023/08/14 10:26:06;;;;;;;4.32;2.20;;;;;;;38.31;69.79;96196.00;5049809;28;20463;-82
2023/08/14 10:28:32;;;;;;;6.63;2.53;;;;;;;38.94;57.77;96192.28;5089905;28;20009;-82
2023/08/14 10:30:59;;;;;;;6.55;2.75;;;;;;;37.37;64.34;96187.41;5088558;28;20048;-82
2023/08/14 10:33:26;;;;;;;6.82;2.50;;;;;;;37.35;63.08;96197.91;5061907;28;20026;-82
2023/08/14 10:35:57;;;;;;;5.05;2.45;;;;;;;37.88;60.25;96193.66;5063680;28;20027;-81
2023/08/14 10:38:40;;;;;;;5.53;2.88;;;;;;;36.74;65.05;96189.97;5051269;28;20486;-82
2023/08/14 10:41:07;;;;;;;4.90;2.70;;;;;;;38.52;59.04;96193.22;5055025;28;20053;-82
2023/08/14 10:43:33;;;;;;;5.55;2.95;;;;;;;38.15;59.18;96187.59;5045963;28;20028;-82
2023/08/14 10:45:58;;;;;;;3.70;2.47;;;;;;;38.34;58.60;96186.28;5051974;28;20024;-82
2023/08/14 10:48:24;;;;;;;6.63;3.10;;;;;;;37.32;59.76;96191.13;5070954;28;20052;-82
2023/08/14 10:51:09;;;;;;;4.72;2.78;;;;;;;38.30;58.97;96186.16;5066875;28;20017;-85
2023/08/14 10:54:03;;;;;;;4.40;2.65;;;;;;;38.00;62.09;96192.91;5045964;28;20025;-82
2023/08/14 10:56:57;;;;;;;6.53;2.92;;;;;;;36.09;68.65;96192.72;5070040;28;20017;-83
2023/08/14 10:59:28;;;;;;;5.05;2.97;;;;;;;36.97;68.10;96176.84;5056194;28;20043;-83
2023/08/14 11:02:10;;;;;;;5.95;3.00;;;;;;;36.75;64.36;96186.88;5058098;28;20106;-83
2023/08/14 11:04:58;;;;;;;6.97;3.08;;;;;;;37.17;62.28;96197.22;5050883;28;20106;-83
2023/08/14 11:07:33;;;;;;;6.18;3.33;;;;;;;37.89;62.59;96187.00;5074456;28;20024;-82
2023/08/14 11:10:02;;;;;;;5.85;3.22;;;;;;;37.61;64.15;96192.25;5074208;28;20479;-83
2023/08/14 11:12:27;;;;;;;6.25;3.30;;;;;;;37.83;61.68;96188.34;5053935;28;20069;-83
2023/08/14 11:14:56;;;;;;;5.13;3.17;;;;;;;37.98;58.40;96179.53;5057988;28;20016;-83
2023/08/14 11:17:23;;;;;;;6.22;3.17;;;;;;;38.25;60.52;96178.13;5055979;28;20044;-83
2023/08/14 11:19:54;;;;;;;5.30;3.20;;;;;;;38.05;57.52;96174.28;5076899;28;20074;-83
2023/08/14 11:22:24;;;;;;;5.45;2.92;;;;;;;37.25;59.77;96179.88;5051459;28;20029;-82
2023/08/14 11:24:50;;;;;;;4.13;3.03;;;;;;;37.25;57.89;96174.41;5049690;28;20029;-82
2023/08/14 11:27:34;;;;;;;4.85;2.67;;;;;;;36.94;59.46;96171.97;5073968;28;20116;-82